Time;durP1;ratioP1;P1;durP2;ratioP2;P2;SDS_P1;SDS_P2;PMS_P1;PMS_P2;Temp;Humidity;BMP_temperature;BMP_pressure;BME280_temperature;BME280_humidity;BME280_pressure;Samples;Min_cycle;Max_cycle;Signal;HPM_P1;HPM_P2
2021/07/25 00:00:13;;;;;;;;;;;;;;;22.26;56.29;100954.13;5076313;28;1581;-80
2021/07/25 00:02:39;;;;;;;;;;;;;;;22.26;56.00;100954.13;5080226;28;1482;-79
2021/07/25 00:05:07;;;;;;;;;;;;;;;22.21;55.77;100946.50;5085758;28;1686;-80
2021/07/25 00:07:34;;;;;;;;;;;;;;;22.26;55.90;100941.50;5074587;28;1674;-79
2021/07/25 00:10:03;;;;;;;;;;;;;;;22.27;55.86;100937.00;5080328;28;1786;-79
2021/07/25 00:12:29;;;;;;;;;;;;;;;22.28;55.89;100949.44;5079412;28;1595;-80
2021/07/25 00:14:57;;;;;;;;;;;;;;;22.19;55.81;100946.63;5071901;28;1566;-81
2021/07/25 00:17:23;;;;;;;;;;;;;;;22.22;55.75;100949.03;5066249;28;1953;-80
2021/07/25 00:19:51;;;;;;;;;;;;;;;22.11;55.87;100943.84;5066782;28;1635;-80
2021/07/25 00:22:17;;;;;;;;;;;;;;;22.19;55.97;100960.09;5073695;28;1510;-79
2021/07/25 00:24:51;;;;;;;;;;;;;;;22.20;55.54;100945.66;5066509;28;1362;-81
2021/07/25 00:27:27;;;;;;;;;;;;;;;22.19;55.91;100953.88;5071524;28;1626;-81
2021/07/25 00:29:53;;;;;;;;;;;;;;;22.11;56.08;100949.25;5061808;28;1798;-80
2021/07/25 00:32:19;;;;;;;;;;;;;;;22.11;55.51;100960.03;5072143;28;1643;-80
2021/07/25 00:34:46;;;;;;;;;;;;;;;22.14;55.29;100950.78;5065413;28;1566;-82
2021/07/25 00:37:12;;;;;;;;;;;;;;;22.17;55.77;100959.41;5081031;28;1910;-81
2021/07/25 00:39:39;;;;;;;;;;;;;;;22.11;55.61;100953.78;5080505;28;1090;-79
2021/07/25 00:42:05;;;;;;;;;;;;;;;22.17;55.91;100969.34;5080348;28;1584;-81
2021/07/25 00:44:35;;;;;;;;;;;;;;;22.20;55.40;100959.13;5075290;28;1581;-81
2021/07/25 00:47:02;;;;;;;;;;;;;;;22.18;55.41;100958.44;5067321;28;1658;-80
2021/07/25 00:49:29;;;;;;;;;;;;;;;22.15;55.45;100961.41;5065456;28;1594;-80
2021/07/25 00:51:57;;;;;;;;;;;;;;;22.20;55.60;100951.03;5071162;28;1457;-79
2021/07/25 00:54:26;;;;;;;;;;;;;;;22.18;54.96;100949.47;5071462;28;1054;-80
2021/07/25 00:56:52;;;;;;;;;;;;;;;22.15;55.28;100961.41;5080019;28;1898;-80
2021/07/25 00:59:21;;;;;;;;;;;;;;;22.10;55.05;100965.56;5079531;28;1606;-80
2021/07/25 01:01:49;;;;;;;;;;;;;;;22.10;55.51;100963.69;5076516;28;1376;-79
2021/07/25 01:04:24;;;;;;;;;;;;;;;22.10;55.04;100969.09;5078445;28;1629;-80
2021/07/25 01:07:01;;;;;;;;;;;;;;;22.11;55.53;100954.63;5078916;28;1533;-79
2021/07/25 01:09:33;;;;;;;;;;;;;;;22.05;55.74;100960.63;5071341;28;1743;-80
2021/07/25 01:12:04;;;;;;;;;;;;;;;21.82;55.98;100970.94;5060758;28;1628;-81
2021/07/25 01:14:31;;;;;;;;;;;;;;;21.88;55.44;100969.50;5078350;28;1569;-81
2021/07/25 01:17:12;;;;;;;;;;;;;;;21.93;55.58;100968.06;5072359;28;1987;-80
2021/07/25 01:19:40;;;;;;;;;;;;;;;21.90;55.75;100964.81;5078558;28;1573;-80
2021/07/25 01:22:09;;;;;;;;;;;;;;;21.80;56.19;100984.53;5065744;28;1619;-81
2021/07/25 01:24:35;;;;;;;;;;;;;;;21.92;55.77;100976.28;5064838;28;1093;-79
2021/07/25 01:27:02;;;;;;;;;;;;;;;21.99;55.33;100977.38;5073937;28;1790;-80
2021/07/25 01:29:30;;;;;;;;;;;;;;;22.07;54.75;100980.19;5083059;28;1643;-80
2021/07/25 01:31:56;;;;;;;;;;;;;;;21.97;54.92;100974.00;5082655;28;1677;-81
2021/07/25 01:34:24;;;;;;;;;;;;;;;21.98;55.45;100983.75;5077450;28;1473;-80
2021/07/25 01:36:52;;;;;;;;;;;;;;;21.99;55.37;100974.69;5081788;28;1961;-80
2021/07/25 01:39:20;;;;;;;;;;;;;;;22.05;54.92;100982.16;5083142;28;956;-84
2021/07/25 01:41:46;;;;;;;;;;;;;;;22.02;54.88;100977.06;5095155;28;1731;-80
2021/07/25 01:44:14;;;;;;;;;;;;;;;22.08;54.67;100981.00;5083506;28;1530;-79
2021/07/25 01:46:40;;;;;;;;;;;;;;;22.01;54.66;100997.78;5081467;28;1577;-80
2021/07/25 01:49:07;;;;;;;;;;;;;;;21.94;54.77;100985.06;5078858;28;1058;-80
2021/07/25 01:51:34;;;;;;;;;;;;;;;21.89;54.67;100981.97;5079101;28;1073;-81
2021/07/25 01:54:01;;;;;;;;;;;;;;;21.93;55.30;100973.44;5064360;28;1600;-79
2021/07/25 01:56:29;;;;;;;;;;;;;;;21.98;54.54;100999.91;5083333;28;1715;-80
2021/07/25 01:58:58;;;;;;;;;;;;;;;21.99;55.14;100993.53;5082186;28;1973;-80
2021/07/25 02:01:25;;;;;;;;;;;;;;;21.88;54.85;100993.72;5150058;23;3841;-82
2021/07/25 02:03:52;;;;;;;;;;;;;;;21.58;54.94;100980.38;5077317;28;1590;-82
2021/07/25 02:06:18;;;;;;;;;;;;;;;21.67;55.41;100993.97;5060992;28;1583;-81
2021/07/25 02:08:44;;;;;;;;;;;;;;;21.70;54.92;100975.66;5079282;28;1006;-82
2021/07/25 02:11:11;;;;;;;;;;;;;;;21.77;55.08;100978.63;5077945;28;1365;-81
2021/07/25 02:13:40;;;;;;;;;;;;;;;21.78;54.81;100981.16;5077920;28;1757;-81
2021/07/25 02:16:06;;;;;;;;;;;;;;;21.82;55.07;100993.31;5077629;28;1598;-81
2021/07/25 02:18:33;;;;;;;;;;;;;;;21.83;54.69;100983.41;5073855;28;1902;-82
2021/07/25 02:20:59;;;;;;;;;;;;;;;21.63;55.13;100988.88;5076787;28;1703;-82
2021/07/25 02:23:26;;;;;;;;;;;;;;;21.32;55.88;101001.69;5077519;28;1505;-82
2021/07/25 02:25:52;;;;;;;;;;;;;;;21.19;55.58;101002.00;5064911;28;1350;-82
2021/07/25 02:28:19;;;;;;;;;;;;;;;21.01;56.99;100993.81;5077220;28;1588;-81
2021/07/25 02:30:47;;;;;;;;;;;;;;;21.02;56.77;100990.13;5068353;28;1507;-81
2021/07/25 02:33:13;;;;;;;;;;;;;;;21.24;55.56;101006.94;5062734;28;1439;-81
2021/07/25 02:35:40;;;;;;;;;;;;;;;21.41;54.97;100999.97;5073734;28;1569;-85
2021/07/25 02:38:06;;;;;;;;;;;;;;;21.48;55.75;101001.09;5076826;28;1914;-81
2021/07/25 02:40:33;;;;;;;;;;;;;;;21.55;54.98;100987.94;5078027;28;1590;-81
2021/07/25 02:43:00;;;;;;;;;;;;;;;21.56;54.72;100992.31;5077132;28;1518;-82
2021/07/25 02:45:27;;;;;;;;;;;;;;;21.64;54.25;100979.78;5076617;28;1531;-82
2021/07/25 02:47:54;;;;;;;;;;;;;;;21.60;54.47;100993.69;5078623;28;1558;-82
2021/07/25 02:50:21;;;;;;;;;;;;;;;21.63;54.54;100999.66;5077446;28;1483;-82
2021/07/25 02:52:48;;;;;;;;;;;;;;;21.67;54.05;101010.97;5077304;28;1731;-82
2021/07/25 02:55:16;;;;;;;;;;;;;;;21.67;54.00;101002.91;5078469;28;1496;-81
2021/07/25 02:57:44;;;;;;;;;;;;;;;21.66;54.95;100998.50;5069838;28;1910;-82
2021/07/25 03:00:11;;;;;;;;;;;;;;;21.56;55.34;100993.16;5072919;28;1318;-82
2021/07/25 03:02:38;;;;;;;;;;;;;;;21.55;54.43;100988.78;5067604;28;1557;-80
2021/07/25 03:05:07;;;;;;;;;;;;;;;21.65;55.26;101007.59;5072131;28;10776;-82
2021/07/25 03:07:34;;;;;;;;;;;;;;;21.72;54.11;101011.34;5073986;28;1564;-81
2021/07/25 03:10:00;;;;;;;;;;;;;;;21.77;54.42;101006.41;5063557;28;1703;-81
2021/07/25 03:12:28;;;;;;;;;;;;;;;21.92;54.16;101014.81;5068884;28;1592;-81
2021/07/25 03:14:56;;;;;;;;;;;;;;;21.98;54.02;101010.69;5077566;28;1498;-82
2021/07/25 03:17:22;;;;;;;;;;;;;;;21.98;53.67;101014.22;5080119;28;1905;-82
2021/07/25 03:19:49;;;;;;;;;;;;;;;21.93;53.99;101015.69;5077875;28;1560;-81
2021/07/25 03:22:17;;;;;;;;;;;;;;;21.89;54.06;101022.38;5074222;28;1532;-81
2021/07/25 03:24:43;;;;;;;;;;;;;;;21.89;53.73;101020.50;5070173;28;1899;-80
2021/07/25 03:27:10;;;;;;;;;;;;;;;21.81;54.69;101023.94;5079685;28;1384;-82
2021/07/25 03:29:36;;;;;;;;;;;;;;;21.67;54.52;101010.13;5073969;28;1511;-81
2021/07/25 03:32:04;;;;;;;;;;;;;;;21.44;56.02;101022.06;5068847;28;1486;-81
2021/07/25 03:34:33;;;;;;;;;;;;;;;21.38;55.72;101030.69;5071581;28;1525;-80
2021/07/25 03:36:59;;;;;;;;;;;;;;;21.48;56.04;101024.47;5064697;28;1522;-82
2021/07/25 03:39:27;;;;;;;;;;;;;;;21.63;55.01;101025.72;5073063;28;1983;-81
2021/07/25 03:41:55;;;;;;;;;;;;;;;21.67;55.29;101021.72;5067466;28;1446;-81
2021/07/25 03:44:21;;;;;;;;;;;;;;;21.74;55.25;101028.22;5072695;28;1436;-85
2021/07/25 03:46:48;;;;;;;;;;;;;;;21.94;54.46;101017.38;5076091;28;1707;-82
2021/07/25 03:49:16;;;;;;;;;;;;;;;21.90;54.75;101015.97;5069863;28;1439;-81
2021/07/25 03:51:42;;;;;;;;;;;;;;;21.84;55.15;101012.03;5074278;28;1112;-81
2021/07/25 03:54:09;;;;;;;;;;;;;;;21.84;54.92;101020.97;5075778;28;1422;-80
2021/07/25 03:56:37;;;;;;;;;;;;;;;21.89;55.04;101019.69;5069442;28;1419;-81
2021/07/25 03:59:04;;;;;;;;;;;;;;;21.91;55.02;101023.06;5062001;28;1914;-81
2021/07/25 04:01:30;;;;;;;;;;;;;;;21.95;55.14;101040.63;5070911;28;1411;-80
2021/07/25 04:03:57;;;;;;;;;;;;;;;21.96;55.03;101034.22;5073667;28;1472;-82
2021/07/25 04:06:23;;;;;;;;;;;;;;;21.99;55.20;101024.00;5071193;28;1530;-81
2021/07/25 04:08:50;;;;;;;;;;;;;;;22.06;54.93;101026.94;5076626;28;1449;-82
2021/07/25 04:11:17;;;;;;;;;;;;;;;22.10;55.11;101036.41;5068067;28;1794;-87
2021/07/25 04:13:45;;;;;;;;;;;;;;;22.20;54.66;101026.47;5065719;28;1556;-81
2021/07/25 04:16:12;;;;;;;;;;;;;;;22.28;55.11;101011.41;5075896;28;1486;-80
2021/07/25 04:18:39;;;;;;;;;;;;;;;22.29;55.27;101045.44;5075264;28;1902;-81
2021/07/25 04:21:08;;;;;;;;;;;;;;;22.31;54.79;101029.97;5068095;28;1615;-81
2021/07/25 04:23:38;;;;;;;;;;;;;;;22.27;55.18;101039.38;5064955;28;1410;-82
2021/07/25 04:26:05;;;;;;;;;;;;;;;22.27;55.42;101039.38;5059415;28;1018;-82
2021/07/25 04:28:32;;;;;;;;;;;;;;;22.26;55.17;101043.88;5066917;28;1735;-81
2021/07/25 04:31:00;;;;;;;;;;;;;;;22.30;55.14;101039.03;5078360;28;1520;-81
2021/07/25 04:33:27;;;;;;;;;;;;;;;22.36;55.27;101038.44;5066165;28;1584;-81
2021/07/25 04:35:56;;;;;;;;;;;;;;;22.39;55.09;101040.84;5058009;28;1564;-83
2021/07/25 04:38:22;;;;;;;;;;;;;;;22.23;56.44;101054.94;5075569;28;1919;-81
2021/07/25 04:40:54;;;;;;;;;;;;;;;22.10;56.39;101049.03;5077384;28;1051;-81
2021/07/25 04:43:22;;;;;;;;;;;;;;;22.09;56.47;101045.50;5069723;28;1505;-80
2021/07/25 04:45:51;;;;;;;;;;;;;;;22.08;55.84;101049.19;5076047;28;1552;-84
2021/07/25 04:48:23;;;;;;;;;;;;;;;22.23;56.09;101038.78;5065930;28;1537;-81
2021/07/25 04:50:51;;;;;;;;;;;;;;;22.38;55.45;101048.09;5072207;28;1583;-83
2021/07/25 04:53:22;;;;;;;;;;;;;;;22.48;54.80;101031.84;5077819;28;1700;-80
2021/07/25 04:55:55;;;;;;;;;;;;;;;22.56;54.80;101040.03;5077788;28;1342;-82
2021/07/25 04:58:23;;;;;;;;;;;;;;;22.55;55.24;101043.72;5078687;28;1890;-82
2021/07/25 05:00:53;;;;;;;;;;;;;;;22.47;55.56;101053.56;5082637;28;1731;-82
2021/07/25 05:03:23;;;;;;;;;;;;;;;22.42;55.97;101048.59;5081951;28;1800;-82
2021/07/25 05:05:55;;;;;;;;;;;;;;;22.28;56.30;101058.03;5073634;28;1606;-81
2021/07/25 05:08:22;;;;;;;;;;;;;;;22.19;56.52;101059.78;5068187;28;1496;-81
2021/07/25 05:10:49;;;;;;;;;;;;;;;22.34;56.05;101062.00;5077348;28;1601;-80
2021/07/25 05:13:18;;;;;;;;;;;;;;;22.23;56.89;101066.56;5060607;28;1497;-80
2021/07/25 05:15:47;;;;;;;;;;;;;;;22.39;56.44;101071.31;5073919;28;1603;-81
2021/07/25 05:18:17;;;;;;;;;;;;;;;22.51;56.30;101052.25;5063764;28;1906;-81
2021/07/25 05:20:52;;;;;;;;;;;;;;;22.59;56.29;101065.81;5068848;28;1564;-82
2021/07/25 05:23:21;;;;;;;;;;;;;;;22.74;56.05;101069.69;5075637;28;1474;-82
2021/07/25 05:25:56;;;;;;;;;;;;;;;22.96;56.15;101062.13;5073905;28;1582;-80
2021/07/25 05:28:37;;;;;;;;;;;;;;;22.84;56.35;101058.84;5071496;28;1486;-82
2021/07/25 05:31:07;;;;;;;;;;;;;;;22.89;56.26;101053.81;5068637;28;1260;-82
2021/07/25 05:33:39;;;;;;;;;;;;;;;23.03;55.65;101066.78;5076110;28;1719;-81
2021/07/25 05:36:10;;;;;;;;;;;;;;;23.17;55.97;101061.84;5064172;28;1691;-82
2021/07/25 05:38:42;;;;;;;;;;;;;;;23.28;55.63;101060.75;5067803;28;1882;-84
2021/07/25 05:41:10;;;;;;;;;;;;;;;23.39;55.38;101071.31;5080150;28;1436;-82
2021/07/25 05:43:37;;;;;;;;;;;;;;;23.39;55.46;101050.53;5077059;28;1554;-82
2021/07/25 05:46:03;;;;;;;;;;;;;;;23.46;55.65;101042.69;5076023;28;1548;-81
2021/07/25 05:48:30;;;;;;;;;;;;;;;23.51;55.32;101055.69;5074868;28;1603;-83
2021/07/25 05:50:57;;;;;;;;;;;;;;;23.52;55.74;101057.41;5078211;28;1367;-84
2021/07/25 05:53:24;;;;;;;;;;;;;;;23.52;55.22;101052.00;5080562;28;1441;-82
2021/07/25 05:55:51;;;;;;;;;;;;;;;23.56;55.74;101064.19;5079014;28;1370;-82
2021/07/25 05:58:20;;;;;;;;;;;;;;;23.60;55.67;101068.25;5079557;28;1926;-83
2021/07/25 06:00:47;;;;;;;;;;;;;;;23.57;55.57;101064.00;5081095;28;1354;-82
2021/07/25 06:03:13;;;;;;;;;;;;;;;23.61;55.31;101059.97;5080591;28;1443;-82
2021/07/25 06:05:46;;;;;;;;;;;;;;;23.61;55.63;101064.53;5075891;28;1190;-82
2021/07/25 06:08:13;;;;;;;;;;;;;;;23.63;55.97;101070.63;5082040;28;1505;-82
2021/07/25 06:10:43;;;;;;;;;;;;;;;23.67;55.69;101060.34;5084073;28;1770;-83
2021/07/25 06:13:11;;;;;;;;;;;;;;;23.65;55.68;101067.78;5078622;28;1308;-82
2021/07/25 06:15:39;;;;;;;;;;;;;;;23.70;55.76;101068.16;5079605;28;1472;-83
2021/07/25 06:18:13;;;;;;;;;;;;;;;23.70;55.84;101060.88;5076883;28;1336;-81
2021/07/25 06:20:42;;;;;;;;;;;;;;;23.71;56.07;101057.16;5078166;28;1902;-81
2021/07/25 06:23:09;;;;;;;;;;;;;;;23.74;56.28;101067.66;5075568;28;1571;-81
2021/07/25 06:25:38;;;;;;;;;;;;;;;23.75;56.29;101061.25;5082828;28;1394;-82
2021/07/25 06:28:06;;;;;;;;;;;;;;;23.78;55.79;101074.47;5080603;28;1607;-82
2021/07/25 06:30:32;;;;;;;;;;;;;;;23.78;55.97;101071.75;5077972;28;1402;-81
2021/07/25 06:33:02;;;;;;;;;;;;;;;23.80;56.31;101072.44;5076854;28;1457;-82
2021/07/25 06:35:32;;;;;;;;;;;;;;;23.86;56.24;101062.88;5090666;28;1355;-83
2021/07/25 06:38:00;;;;;;;;;;;;;;;23.87;56.52;101069.94;5076314;28;1461;-81
2021/07/25 06:40:33;;;;;;;;;;;;;;;23.87;56.11;101061.84;5079951;28;1882;-83
2021/07/25 06:43:00;;;;;;;;;;;;;;;23.92;55.73;101073.03;5068811;28;1472;-82
2021/07/25 06:45:28;;;;;;;;;;;;;;;23.90;56.10;101066.94;5068057;28;1634;-80
2021/07/25 06:47:54;;;;;;;;;;;;;;;23.91;56.33;101065.06;5076031;28;1357;-82
2021/07/25 06:50:23;;;;;;;;;;;;;;;23.93;55.84;101054.97;5068280;28;1250;-80
2021/07/25 06:52:51;;;;;;;;;;;;;;;23.96;56.25;101070.84;5057984;28;1560;-82
2021/07/25 06:55:18;;;;;;;;;;;;;;;23.97;56.03;101056.31;5068997;28;1149;-82
2021/07/25 06:57:45;;;;;;;;;;;;;;;23.95;56.06;101061.88;5080266;28;1464;-82
2021/07/25 07:00:12;;;;;;;;;;;;;;;23.99;56.63;101054.31;5076349;28;1902;-81
2021/07/25 07:02:50;;;;;;;;;;;;;;;23.96;56.29;101052.78;5075365;28;1490;-81
2021/07/25 07:05:19;;;;;;;;;;;;;;;24.03;56.18;101066.47;5077699;28;1293;-82
2021/07/25 07:07:48;;;;;;;;;;;;;;;24.00;56.47;101056.03;5076676;28;1586;-85
2021/07/25 07:10:15;;;;;;;;;;;;;;;24.07;56.16;101062.44;5076428;28;1420;-84
2021/07/25 07:12:42;;;;;;;;;;;;;;;24.12;55.89;101076.34;5071269;28;1727;-84
2021/07/25 07:15:15;;;;;;;;;;;;;;;24.14;56.14;101068.91;5076940;28;1421;-83
2021/07/25 07:17:43;;;;;;;;;;;;;;;24.15;56.18;101058.94;5072729;28;1512;-82
2021/07/25 07:20:12;;;;;;;;;;;;;;;24.19;56.23;101058.47;5071139;28;1976;-84
2021/07/25 07:22:39;;;;;;;;;;;;;;;24.21;56.41;101069.97;5079588;28;1493;-82
2021/07/25 07:25:09;;;;;;;;;;;;;;;24.22;56.88;101063.53;5074076;28;1179;-84
2021/07/25 07:27:39;;;;;;;;;;;;;;;24.33;57.05;101073.22;5076827;28;1529;-84
2021/07/25 07:30:07;;;;;;;;;;;;;;;24.36;56.16;101069.34;4715635;28;10000388;-82
2021/07/25 07:32:34;;;;;;;;;;;;;;;24.40;56.83;101068.00;5071359;28;1445;-85
2021/07/25 07:35:01;;;;;;;;;;;;;;;24.36;57.22;101070.19;5068131;28;1521;-83
2021/07/25 07:37:27;;;;;;;;;;;;;;;24.45;56.53;101071.03;5065312;28;999;-82
2021/07/25 07:39:55;;;;;;;;;;;;;;;24.44;56.39;101069.34;5070905;28;1980;-83
2021/07/25 07:42:23;;;;;;;;;;;;;;;24.47;57.36;101076.28;5064510;28;1546;-84
2021/07/25 07:44:49;;;;;;;;;;;;;;;24.46;56.36;101078.16;5073416;28;1386;-82
2021/07/25 07:47:23;;;;;;;;;;;;;;;24.49;56.75;101077.84;5076675;28;1299;-83
2021/07/25 07:49:50;;;;;;;;;;;;;;;24.51;56.81;101083.97;5071758;28;1334;-82
2021/07/25 07:52:23;;;;;;;;;;;;;;;24.48;57.09;101075.28;5070045;28;1347;-85
2021/07/25 07:54:55;;;;;;;;;;;;;;;24.50;57.47;101082.25;5071248;28;1592;-83
2021/07/25 07:57:23;;;;;;;;;;;;;;;24.51;57.77;101081.25;5075227;28;1559;-83
2021/07/25 07:59:50;;;;;;;;;;;;;;;24.48;56.74;101075.28;5070972;28;1906;-82
2021/07/25 08:02:17;;;;;;;;;;;;;;;24.51;57.81;101086.66;5070756;28;1399;-83
2021/07/25 08:04:43;;;;;;;;;;;;;;;24.48;57.13;101070.72;5071069;28;1548;-83
2021/07/25 08:07:10;;;;;;;;;;;;;;;24.46;57.49;101094.38;5070132;28;1570;-82
2021/07/25 08:09:38;;;;;;;;;;;;;;;24.43;57.13;101094.69;5063235;28;1615;-83
2021/07/25 08:12:06;;;;;;;;;;;;;;;24.42;57.10;101088.44;5076608;28;1429;-83
2021/07/25 08:14:34;;;;;;;;;;;;;;;24.47;57.35;101096.09;5076626;28;1353;-81
2021/07/25 08:17:02;;;;;;;;;;;;;;;24.41;56.55;101102.13;5079820;28;1581;-79
2021/07/25 08:19:29;;;;;;;;;;;;;;;24.45;56.82;101106.19;5069875;28;1957;-81
2021/07/25 08:21:56;;;;;;;;;;;;;;;24.37;56.55;101082.69;5070710;28;1700;-81
2021/07/25 08:24:22;;;;;;;;;;;;;;;24.37;57.04;101095.34;5076909;28;1877;-82
2021/07/25 08:26:50;;;;;;;;;;;;;;;24.32;57.08;101093.13;5070844;28;1605;-83
2021/07/25 08:29:18;;;;;;;;;;;;;;;24.31;56.96;101079.78;5069298;28;1480;-81
2021/07/25 08:31:48;;;;;;;;;;;;;;;24.31;56.88;101096.88;5070484;28;1477;-81
2021/07/25 08:34:15;;;;;;;;;;;;;;;24.28;56.82;101093.63;5075873;28;1799;-80
2021/07/25 08:36:43;;;;;;;;;;;;;;;24.30;56.95;101094.31;5071483;28;1512;-80
2021/07/25 08:39:10;;;;;;;;;;;;;;;24.33;57.34;101089.44;5069372;28;1968;-79
2021/07/25 08:41:53;;;;;;;;;;;;;;;24.32;56.64;101092.31;5072868;28;1546;-79
2021/07/25 08:44:36;;;;;;;;;;;;;;;24.30;57.09;101099.72;5067950;28;1375;-81
2021/07/25 08:47:13;;;;;;;;;;;;;;;24.29;57.41;101093.47;5071044;28;1544;-81
2021/07/25 08:49:42;;;;;;;;;;;;;;;24.27;57.54;101095.47;5062589;28;1387;-81
2021/07/25 08:52:16;;;;;;;;;;;;;;;24.31;57.01;101093.28;5066869;28;1417;-83
2021/07/25 08:54:43;;;;;;;;;;;;;;;24.27;57.59;101086.53;5074933;28;1250;-81
2021/07/25 08:57:13;;;;;;;;;;;;;;;24.27;56.92;101089.22;5060094;28;1727;-82
2021/07/25 08:59:41;;;;;;;;;;;;;;;24.30;57.61;101099.72;5069150;28;1902;-85
2021/07/25 09:02:16;;;;;;;;;;;;;;;24.28;57.07;101090.94;5073654;28;1430;-80
2021/07/25 09:04:42;;;;;;;;;;;;;;;24.31;56.98;101090.59;5067555;28;1451;-81
2021/07/25 09:07:10;;;;;;;;;;;;;;;24.28;57.25;101089.06;5069261;28;1619;-79
2021/07/25 09:09:36;;;;;;;;;;;;;;;24.28;57.08;101093.63;5067301;28;1696;-81
2021/07/25 09:12:03;;;;;;;;;;;;;;;24.29;56.75;101093.47;5070813;28;1708;-81
2021/07/25 09:14:29;;;;;;;;;;;;;;;24.26;56.82;101088.38;5066955;28;1438;-80
2021/07/25 09:16:58;;;;;;;;;;;;;;;24.30;57.21;101089.75;5066409;28;1350;-81
2021/07/25 09:19:26;;;;;;;;;;;;;;;24.30;56.77;101080.81;5068628;28;2019;-83
2021/07/25 09:21:54;;;;;;;;;;;;;;;24.29;56.82;101081.78;5074125;28;1758;-79
2021/07/25 09:24:22;;;;;;;;;;;;;;;24.28;57.36;101069.31;5065714;28;1397;-81
2021/07/25 09:26:51;;;;;;;;;;;;;;;24.29;57.00;101068.28;5072231;28;1386;-80
2021/07/25 09:29:18;;;;;;;;;;;;;;;24.32;56.72;101093.13;5067449;28;1647;-82
2021/07/25 09:31:44;;;;;;;;;;;;;;;24.30;56.84;101078.09;5069606;28;1493;-80
2021/07/25 09:34:11;;;;;;;;;;;;;;;24.32;57.06;101076.09;5073504;28;1345;-81
2021/07/25 09:36:39;;;;;;;;;;;;;;;24.39;57.20;101069.00;5073323;28;1585;-81
2021/07/25 09:39:06;;;;;;;;;;;;;;;24.37;57.30;101090.81;5074076;28;1699;-80
2021/07/25 09:41:33;;;;;;;;;;;;;;;24.32;57.09;101086.91;5076163;28;1898;-82
2021/07/25 09:44:01;;;;;;;;;;;;;;;24.34;56.83;101090.28;5069794;28;1394;-77
2021/07/25 09:46:28;;;;;;;;;;;;;;;24.32;57.08;101087.72;5070285;28;1606;-80
2021/07/25 09:48:59;;;;;;;;;;;;;;;24.34;57.67;101085.72;5072537;28;1533;-79
2021/07/25 09:51:31;;;;;;;;;;;;;;;24.36;57.36;101072.03;5074180;28;1700;-80
2021/07/25 09:54:02;;;;;;;;;;;;;;;24.29;57.61;101071.84;5080864;28;1509;-80
2021/07/25 09:56:29;;;;;;;;;;;;;;;24.30;56.72;101080.81;5075820;28;1778;-81
2021/07/25 09:58:57;;;;;;;;;;;;;;;24.30;57.15;101072.69;5073475;28;1443;-81
2021/07/25 10:01:39;;;;;;;;;;;;;;;24.30;57.66;101072.69;5067689;28;1979;-82
2021/07/25 10:04:13;;;;;;;;;;;;;;;24.30;57.61;101072.69;5068642;28;1454;-81
2021/07/25 10:06:41;;;;;;;;;;;;;;;24.32;57.61;101070.69;5068691;28;1403;-79
2021/07/25 10:09:10;;;;;;;;;;;;;;;24.30;57.33;101070.00;5065963;28;1712;-81
2021/07/25 10:11:37;;;;;;;;;;;;;;;24.31;57.80;101052.75;5074268;28;1405;-78
2021/07/25 10:14:04;;;;;;;;;;;;;;;24.36;57.10;101063.94;5068480;28;1617;-80
2021/07/25 10:16:33;;;;;;;;;;;;;;;24.31;57.92;101064.44;5072507;28;1505;-82
2021/07/25 10:19:01;;;;;;;;;;;;;;;24.34;57.49;101052.44;5075077;28;1198;-80
2021/07/25 10:21:31;;;;;;;;;;;;;;;24.31;57.33;101058.16;5075178;28;1953;-82
2021/07/25 10:23:58;;;;;;;;;;;;;;;24.33;57.44;101057.00;5068816;28;1441;-82
2021/07/25 10:26:26;;;;;;;;;;;;;;;24.32;57.40;101051.75;5069143;28;1349;-83
2021/07/25 10:28:54;;;;;;;;;;;;;;;24.27;57.16;101044.13;5072257;28;1377;-82
2021/07/25 10:31:22;;;;;;;;;;;;;;;24.27;57.83;101052.22;5077152;28;1347;-81
2021/07/25 10:33:49;;;;;;;;;;;;;;;24.26;57.60;101033.50;5072188;28;1775;-80
2021/07/25 10:36:17;;;;;;;;;;;;;;;24.26;57.76;101038.91;5071861;28;1326;-80
2021/07/25 10:38:45;;;;;;;;;;;;;;;24.30;57.39;101051.06;5070393;28;1394;-82
2021/07/25 10:41:14;;;;;;;;;;;;;;;24.30;57.17;101051.06;5077995;28;1898;-81
2021/07/25 10:43:42;;;;;;;;;;;;;;;24.32;57.87;101054.47;5068120;28;1364;-83
2021/07/25 10:46:21;;;;;;;;;;;;;;;24.12;56.97;100999.84;5074758;28;1704;-81
2021/07/25 10:49:09;;;;;;;;;;;;;;;24.34;56.34;101026.25;5070612;28;1377;-82
2021/07/25 10:51:37;;;;;;;;;;;;;;;24.42;55.74;101026.25;5071326;28;1587;-79
2021/07/25 10:54:18;;;;;;;;;;;;;;;24.40;56.74;101035.56;5068606;28;1724;-80
2021/07/25 10:56:58;;;;;;;;;;;;;;;24.41;55.13;101035.41;5071054;28;1758;-81
2021/07/25 10:59:41;;;;;;;;;;;;;;;24.41;54.73;101027.28;5070118;28;1331;-82
2021/07/25 11:02:12;;;;;;;;;;;;;;;24.16;55.77;101033.63;5070481;28;1542;-82
2021/07/25 11:05:13;;;;;;;;;;;;;;;23.17;56.82;101046.50;5080773;28;1298;-81
2021/07/25 11:07:42;;;;;;;;;;;;;;;22.36;58.26;101033.91;4995647;28;1485;-84
2021/07/25 11:10:11;;;;;;;;;;;;;;;22.03;58.74;101038.03;4997745;28;1646;-81
2021/07/25 11:12:56;;;;;;;;;;;;;;;22.18;58.56;101036.53;4998648;28;1477;-86
2021/07/25 11:15:33;;;;;;;;;;;;;;;22.31;58.05;101030.81;4999338;28;1676;-79
2021/07/25 11:18:01;;;;;;;;;;;;;;;22.48;58.13;101031.84;4998338;28;1786;-81
2021/07/25 11:20:31;;;;;;;;;;;;;;;22.61;59.42;101032.31;5072283;28;1886;-81
2021/07/25 11:23:01;;;;;;;;;;;;;;;22.77;60.24;101026.22;5067928;28;1385;-79
2021/07/25 11:25:32;;;;;;;;;;;;;;;23.00;61.81;101023.09;5073602;28;1421;-79
2021/07/25 11:27:58;;;;;;;;;;;;;;;23.20;62.21;101023.78;5080893;28;1806;-81
2021/07/25 11:30:44;;;;;;;;;;;;;;;23.26;63.24;101033.06;5078776;28;1611;-79
2021/07/25 11:33:27;;;;;;;;;;;;;;;23.30;63.98;101015.56;5068091;28;1799;-79
2021/07/25 11:35:58;;;;;;;;;;;;;;;23.36;64.68;101023.91;5068472;28;1602;-80
2021/07/25 11:38:29;;;;;;;;;;;;;;;23.49;64.95;101014.53;5070780;28;1371;-81
2021/07/25 11:40:56;;;;;;;;;;;;;;;23.66;64.84;100993.88;5069077;28;1894;-80
2021/07/25 11:43:22;;;;;;;;;;;;;;;23.84;65.00;101010.03;5075862;28;1794;-80
2021/07/25 11:45:50;;;;;;;;;;;;;;;23.87;65.39;101007.84;5069492;28;1723;-79
2021/07/25 11:48:20;;;;;;;;;;;;;;;24.02;66.42;101010.78;5078070;28;1683;-81
2021/07/25 11:50:49;;;;;;;;;;;;;;;24.08;66.40;101014.69;5076731;28;1400;-79
2021/07/25 11:53:18;;;;;;;;;;;;;;;23.98;66.41;101014.81;5068352;28;1500;-80
2021/07/25 11:55:46;;;;;;;;;;;;;;;23.64;68.11;101010.22;5070639;28;1346;-80
2021/07/25 11:58:20;;;;;;;;;;;;;;;23.56;68.42;101010.19;5076494;28;1628;-80
2021/07/25 12:00:49;;;;;;;;;;;;;;;23.58;69.10;101013.56;5074772;28;1906;-81
2021/07/25 12:03:18;;;;;;;;;;;;;;;23.65;68.91;101003.81;5078475;28;1471;-84
2021/07/25 12:06:16;;;;;;;;;;;;;;;23.71;68.94;101003.16;5075938;28;1143;-80
2021/07/25 12:09:01;;;;;;;;;;;;;;;23.85;69.02;100998.22;5075317;28;1360;-79
2021/07/25 12:11:29;;;;;;;;;;;;;;;24.01;68.59;100973.94;5073175;28;1543;-85
2021/07/25 12:13:55;;;;;;;;;;;;;;;24.04;69.61;100992.56;5067782;28;1620;-80
2021/07/25 12:16:23;;;;;;;;;;;;;;;24.10;68.00;100978.38;5068728;28;1421;-80
2021/07/25 12:18:49;;;;;;;;;;;;;;;24.20;68.21;100981.78;5070796;28;1362;-80
2021/07/25 12:21:30;;;;;;;;;;;;;;;24.14;68.50;100982.44;5076444;28;1882;-79
2021/07/25 12:23:58;;;;;;;;;;;;;;;24.02;69.62;100979.19;5069010;28;1270;-79
2021/07/25 12:26:39;;;;;;;;;;;;;;;23.81;70.58;100979.66;5075681;28;1665;-82
2021/07/25 12:29:23;;;;;;;;;;;;;;;23.59;69.28;100966.66;5074582;28;1350;-79
2021/07/25 12:31:50;;;;;;;;;;;;;;;23.49;68.21;100965.94;5054987;28;1456;-80
2021/07/25 12:34:22;;;;;;;;;;;;;;;23.47;67.90;100981.44;5074417;28;1270;-79
2021/07/25 12:36:48;;;;;;;;;;;;;;;23.42;68.16;100946.84;5068826;28;1617;-81
2021/07/25 12:39:23;;;;;;;;;;;;;;;23.54;67.51;100979.81;5068585;28;1165;-80
2021/07/25 12:42:00;;;;;;;;;;;;;;;23.50;66.91;100964.94;5068796;28;1918;-80
2021/07/25 12:44:33;;;;;;;;;;;;;;;23.47;66.76;100963.38;5066357;28;1526;-81
2021/07/25 12:47:19;;;;;;;;;;;;;;;23.42;66.68;100966.59;5068514;28;1354;-79
2021/07/25 12:49:58;;;;;;;;;;;;;;;23.43;66.39;100962.84;5072989;28;1571;-79
2021/07/25 12:52:38;;;;;;;;;;;;;;;23.45;65.69;100954.59;5067272;28;1331;-79
2021/07/25 12:55:06;;;;;;;;;;;;;;;23.37;65.01;100968.06;5065332;28;1470;-80